»·PEaware :: N6515D KENV-05U

N6515D :: KENV-05U

FLIGHT INFORMATION

Flight Status: Arrived
Operator: Privately registered:
United States
More flights under this callsign
Pilot: Charles S. (11412)
Aircraft: Unknown
(DA62)
More flights by this aircraft type
Origin: KENV Wendover
United States
Destination: 05U Eureka
United States
More flights between these airports :: More routes between these airports
Route:
File this flight plan on PilotEdge
Remarks:
Altitude:
(Current/Filed)
12,500ft
Speed:
(Current/Filed)
270kts
Departed: 09-Oct-18 02:58 PM
Arrived: 09-Oct-18 03:41 PM
Distance/Time
Traveled:
113nm/0:43
Distance/Time
To Go:
Arrived

Flight Plot

Page will automatically refresh every two minutes.

Flight plan parsing failed; only flown route is shown


Map Options




Map Legend


Flown Route
Filed Route
Departure Airport
Arrival Airport
Navaid (VOR, NDB)
Fix

Horizontal Profiles

Position Reports

Time Latitude Longitude Heading Altitude Ground
Speed
09-Oct-18 14:59 40.726743 -114.041617 269 4236ft 22kts
09-Oct-18 15:00 40.722097 -114.037599 135 4228ft 85kts
09-Oct-18 15:01 40.707812 -114.032287 308 5183ft 103kts
09-Oct-18 15:02 40.702135 -114.060252 228 6284ft 106kts
09-Oct-18 15:03 40.683279 -114.093351 231 7312ft 120kts
09-Oct-18 15:04 40.663128 -114.129969 232 8327ft 126kts
09-Oct-18 15:05 40.641689 -114.168999 232 9179ft 137kts
09-Oct-18 15:06 40.618898 -114.210356 232 9981ft 138kts
09-Oct-18 15:07 40.598555 -114.247406 233 10688ft 138kts
09-Oct-18 15:08 40.575299 -114.289610 233 11298ft 145kts
09-Oct-18 15:09 40.551287 -114.333120 233 11897ft 148kts
09-Oct-18 15:10 40.527014 -114.377045 233 12492ft 149kts
09-Oct-18 15:11 40.501369 -114.423385 233 12695ft 167kts
09-Oct-18 15:12 40.473165 -114.474264 233 12692ft 175kts
09-Oct-18 15:13 40.444578 -114.525754 233 12691ft 177kts
09-Oct-18 15:14 40.415504 -114.577921 233 12691ft 177kts
09-Oct-18 15:15 40.386528 -114.629879 233 12690ft 177kts
09-Oct-18 15:16 40.358563 -114.679950 233 12692ft 177kts
09-Oct-18 15:17 40.331612 -114.728098 233 12703ft 178kts
09-Oct-18 15:18 40.306645 -114.772797 233 12692ft 178kts
09-Oct-18 15:19 40.277498 -114.824805 233 12692ft 178kts
09-Oct-18 15:20 40.248396 -114.876634 233 12691ft 177kts
09-Oct-18 15:21 40.219351 -114.928275 233 12691ft 177kts
09-Oct-18 15:22 40.189996 -114.980372 233 12691ft 177kts
09-Oct-18 15:23 40.161398 -115.031053 233 12691ft 177kts
09-Oct-18 15:24 40.133890 -115.079709 233 12691ft 177kts
09-Oct-18 15:25 40.105698 -115.129460 233 12691ft 177kts
09-Oct-18 15:26 40.078044 -115.178145 233 12690ft 177kts
09-Oct-18 15:27 40.048640 -115.229955 233 12690ft 177kts
09-Oct-18 15:28 40.019324 -115.281527 233 12690ft 177kts
09-Oct-18 15:29 39.989983 -115.333075 233 12690ft 177kts
09-Oct-18 15:30 39.960509 -115.384724 233 12690ft 177kts
09-Oct-18 15:31 39.931050 -115.436240 233 12690ft 177kts
09-Oct-18 15:32 39.901505 -115.487678 233 12689ft 177kts
09-Oct-18 15:33 39.872122 -115.539168 233 12691ft 177kts
09-Oct-18 15:34 39.842562 -115.590634 233 12691ft 177kts
09-Oct-18 15:35 39.812971 -115.642071 233 12691ft 177kts
09-Oct-18 15:36 39.783449 -115.693322 232 12692ft 178kts
09-Oct-18 15:37 39.753722 -115.744671 232 12606ft 182kts
09-Oct-18 15:38 39.723348 -115.802867 236 11348ft 202kts
09-Oct-18 15:39 39.699379 -115.867552 242 9902ft 200kts
09-Oct-18 15:40 39.674346 -115.927650 239 8223ft 193kts
09-Oct-18 15:41 39.648853 -115.983350 233 6651ft 146kts
09-Oct-18 15:42 39.623459 -115.998689 190 6143ft 94kts
09-Oct-18 15:43 39.602882 -116.003813 189 5958ft 37kts
09-Oct-18 15:44 39.600323 -116.006066 11 5958ft 1kts
09-Oct-18 15:45 39.600323 -116.006066 12 5958ft 0kts
09-Oct-18 15:46 39.600323 -116.006066 12 5958ft 0kts
09-Oct-18 15:47 39.600323 -116.006066 12 5958ft 0kts
09-Oct-18 15:48 39.600323 -116.006066 12 5958ft 0kts
09-Oct-18 15:49 39.600323 -116.006066 12 5958ft 0kts
09-Oct-18 15:50 39.600323 -116.006066 12 5958ft 0kts

Navigation Log

Ident Type
Flight plan parsing failed, navigation log unavailable